Time;durP1;ratioP1;P1;durP2;ratioP2;P2;SDS_P1;SDS_P2;PMS_P1;PMS_P2;Temp;Humidity;BMP_temperature;BMP_pressure;BME280_temperature;BME280_humidity;BME280_pressure;Samples;Min_cycle;Max_cycle;Signal;HPM_P1;HPM_P2
2020/12/09 01:36:51;;;;;;;54.00;25.73;;;;;;;;;;606948;22;20302;-94
2020/12/09 01:39:17;;;;;;;55.33;26.47;;;;;;;;;;5094640;28;20045;-96
2020/12/09 01:41:43;;;;;;;57.43;26.73;;;;;;;;;;5097275;28;20019;-96
2020/12/09 01:44:09;;;;;;;58.50;26.87;;;;;;;;;;5097341;28;20028;-96
2020/12/09 01:46:39;;;;;;;60.67;26.80;;;;;;;;;;5080777;28;20005;-96
2020/12/09 01:49:08;;;;;;;65.57;30.00;;;;;;;;;;5076853;28;20037;-95
2020/12/09 01:51:37;;;;;;;62.80;29.17;;;;;;;;;;5076848;28;20077;-94
2020/12/09 01:54:03;;;;;;;63.70;29.57;;;;;;;;;;5076323;28;20009;-93
2020/12/09 01:56:32;;;;;;;58.67;27.37;;;;;;;;;;5097053;28;20058;-93
2020/12/09 01:58:59;;;;;;;59.80;28.13;;;;;;;;;;5096817;28;20009;-93
2020/12/09 02:01:25;;;;;;;63.50;28.00;;;;;;;;;;5097717;28;20021;-94
2020/12/09 02:03:52;;;;;;;61.00;27.83;;;;;;;;;;5097305;28;20008;-94
2020/12/09 02:06:24;;;;;;;65.47;28.60;;;;;;;;;;5093444;28;20073;-94
2020/12/09 02:08:50;;;;;;;65.18;30.30;;;;;;;;;;5076790;28;20009;-93
2020/12/09 02:11:16;;;;;;;64.40;28.73;;;;;;;;;;5077059;28;20092;-94
2020/12/09 02:13:46;;;;;;;61.53;29.77;;;;;;;;;;5086716;28;20000;-94
2020/12/09 02:16:17;;;;;;;64.67;29.60;;;;;;;;;;5096987;28;20008;-95
2020/12/09 02:18:43;;;;;;;48.95;22.58;;;;;;;;;;5097217;28;20011;-93
2020/12/09 02:21:10;;;;;;;62.77;28.80;;;;;;;;;;5097492;28;20028;-94
2020/12/09 02:23:36;;;;;;;65.23;29.20;;;;;;;;;;5098230;28;20011;-93
2020/12/09 02:26:02;;;;;;;65.10;29.13;;;;;;;;;;5097922;28;20031;-93
2020/12/09 02:28:28;;;;;;;65.57;30.47;;;;;;;;;;5086960;28;20083;-93
2020/12/09 02:30:54;;;;;;;67.00;30.87;;;;;;;;;;5081839;28;20063;-94
2020/12/09 02:33:20;;;;;;;67.07;30.87;;;;;;;;;;5081472;28;20005;-94
2020/12/09 02:35:46;;;;;;;70.13;32.57;;;;;;;;;;5076622;28;20016;-95
2020/12/09 02:38:12;;;;;;;63.17;29.27;;;;;;;;;;5076295;28;20005;-94
2020/12/09 02:40:42;;;;;;;64.37;30.10;;;;;;;;;;5076771;28;20005;-95
2020/12/09 02:43:09;;;;;;;64.30;29.87;;;;;;;;;;5076456;28;20009;-96
2020/12/09 02:45:35;;;;;;;68.37;31.20;;;;;;;;;;5076700;28;20081;-95
2020/12/09 02:48:01;;;;;;;63.57;30.73;;;;;;;;;;5078018;28;20009;-94
2020/12/09 02:50:27;;;;;;;63.77;28.80;;;;;;;;;;5093862;28;20021;-94
2020/12/09 02:52:53;;;;;;;60.63;29.40;;;;;;;;;;5100782;28;20123;-94
2020/12/09 02:55:20;;;;;;;63.90;30.80;;;;;;;;;;5100826;28;20005;-95
2020/12/09 02:57:47;;;;;;;61.33;28.93;;;;;;;;;;5100925;28;20008;-94
2020/12/09 03:00:16;;;;;;;65.53;29.43;;;;;;;;;;5095967;28;20091;-93
2020/12/09 03:02:42;;;;;;;65.67;29.47;;;;;;;;;;5080606;28;20076;-95
2020/12/09 03:05:08;;;;;;;68.97;30.17;;;;;;;;;;5080583;28;20040;-94
2020/12/09 03:07:34;;;;;;;62.93;30.20;;;;;;;;;;5080623;28;20009;-93
2020/12/09 03:10:00;;;;;;;66.30;30.23;;;;;;;;;;5091717;28;20021;-95
2020/12/09 03:12:26;;;;;;;68.70;30.43;;;;;;;;;;5080295;28;20005;-94
2020/12/09 03:14:52;;;;;;;66.30;31.27;;;;;;;;;;5080844;28;20035;-94
2020/12/09 03:17:19;;;;;;;67.63;30.27;;;;;;;;;;5081526;28;19997;-94
2020/12/09 03:19:45;;;;;;;63.97;28.87;;;;;;;;;;5080367;28;20020;-94
2020/12/09 03:22:11;;;;;;;63.13;30.00;;;;;;;;;;5096875;28;20005;-94
2020/12/09 03:24:37;;;;;;;61.47;29.37;;;;;;;;;;5096701;28;20013;-93
2020/12/09 03:27:03;;;;;;;60.83;28.47;;;;;;;;;;5092995;28;20072;-93
2020/12/09 03:29:29;;;;;;;60.83;29.27;;;;;;;;;;5076476;28;20013;-93
2020/12/09 03:31:56;;;;;;;67.60;30.47;;;;;;;;;;5093453;28;20000;-94
2020/12/09 03:34:22;;;;;;;61.23;30.50;;;;;;;;;;5100319;28;20024;-94
2020/12/09 03:36:48;;;;;;;69.63;30.67;;;;;;;;;;5095449;28;20093;-93
2020/12/09 03:39:14;;;;;;;63.80;28.50;;;;;;;;;;5079465;28;20009;-94
2020/12/09 03:41:40;;;;;;;64.87;30.00;;;;;;;;;;5079698;28;20033;-94
2020/12/09 03:44:06;;;;;;;62.70;29.73;;;;;;;;;;5079185;28;20005;-94
2020/12/09 03:46:32;;;;;;;69.70;30.40;;;;;;;;;;5079636;28;20001;-94
2020/12/09 03:48:58;;;;;;;66.67;31.23;;;;;;;;;;5078991;28;20035;-93
2020/12/09 03:51:24;;;;;;;68.03;30.80;;;;;;;;;;5079650;28;20005;-95
2020/12/09 03:53:50;;;;;;;67.13;29.80;;;;;;;;;;5079873;28;20005;-94
2020/12/09 03:56:16;;;;;;;61.77;28.03;;;;;;;;;;5079604;28;20073;-93
2020/12/09 03:58:42;;;;;;;64.60;29.10;;;;;;;;;;5078982;28;20028;-95
2020/12/09 04:01:09;;;;;;;67.30;28.90;;;;;;;;;;5079282;28;21389;-94
2020/12/09 04:03:35;;;;;;;66.10;29.47;;;;;;;;;;5079488;28;20005;-94
2020/12/09 04:06:01;;;;;;;66.77;29.40;;;;;;;;;;5079268;28;20009;-96
2020/12/09 04:08:27;;;;;;;63.73;28.27;;;;;;;;;;5079125;28;20013;-94
2020/12/09 04:10:53;;;;;;;66.93;29.20;;;;;;;;;;5079432;28;20012;-95
2020/12/09 04:13:19;;;;;;;65.47;29.63;;;;;;;;;;5079209;28;20043;-94
2020/12/09 04:15:46;;;;;;;62.87;29.77;;;;;;;;;;5078868;28;20001;-95
2020/12/09 04:18:12;;;;;;;64.80;27.20;;;;;;;;;;5083026;28;20001;-93
2020/12/09 04:20:38;;;;;;;62.57;29.43;;;;;;;;;;5078886;28;20092;-94
2020/12/09 04:23:04;;;;;;;62.73;27.90;;;;;;;;;;5079113;28;20008;-95
2020/12/09 04:25:30;;;;;;;63.13;28.57;;;;;;;;;;5079322;28;20218;-95
2020/12/09 04:27:56;;;;;;;60.73;28.50;;;;;;;;;;5076783;28;20012;-95
2020/12/09 04:30:22;;;;;;;63.43;28.47;;;;;;;;;;5079214;28;20132;-95
2020/12/09 04:32:48;;;;;;;57.93;27.70;;;;;;;;;;5098881;28;20001;-95
2020/12/09 04:35:14;;;;;;;61.33;28.53;;;;;;;;;;5099223;28;20001;-95
2020/12/09 04:37:41;;;;;;;62.47;27.53;;;;;;;;;;5088557;28;20063;-94
2020/12/09 04:40:07;;;;;;;60.60;28.03;;;;;;;;;;5078680;28;20009;-95
2020/12/09 04:42:33;;;;;;;59.80;28.57;;;;;;;;;;5079022;28;20005;-95
2020/12/09 04:44:59;;;;;;;58.73;28.37;;;;;;;;;;5078695;28;20076;-95
2020/12/09 04:47:27;;;;;;;64.00;29.47;;;;;;;;;;5093672;28;20080;-96
2020/12/09 04:50:02;;;;;;;60.60;27.47;;;;;;;;;;5078350;28;20015;-95
2020/12/09 04:52:28;;;;;;;61.27;28.37;;;;;;;;;;5078913;28;19997;-93
2020/12/09 04:55:02;;;;;;;60.10;28.63;;;;;;;;;;5078475;28;20201;-94
2020/12/09 04:57:37;;;;;;;60.40;28.00;;;;;;;;;;5078856;28;20028;-96
2020/12/09 05:00:07;;;;;;;61.23;28.90;;;;;;;;;;5078215;28;20005;-96
2020/12/09 05:02:54;;;;;;;60.53;28.10;;;;;;;;;;5078454;28;20009;-96
2020/12/09 05:05:21;;;;;;;58.13;26.90;;;;;;;;;;5078034;28;20001;-96
2020/12/09 05:07:48;;;;;;;54.43;26.40;;;;;;;;;;5078568;28;20016;-96
2020/12/09 05:10:16;;;;;;;58.37;28.07;;;;;;;;;;5077416;28;20032;-96
2020/12/09 05:12:50;;;;;;;59.90;28.07;;;;;;;;;;5078299;28;20007;-96
2020/12/09 05:15:19;;;;;;;60.57;27.50;;;;;;;;;;5078665;28;20005;-96
2020/12/09 05:17:55;;;;;;;64.17;29.07;;;;;;;;;;5078395;28;20007;-95
2020/12/09 05:20:25;;;;;;;57.27;26.97;;;;;;;;;;5078500;28;20009;-96
2020/12/09 05:22:54;;;;;;;58.00;27.57;;;;;;;;;;5077711;28;20078;-96
2020/12/09 05:25:26;;;;;;;57.77;27.63;;;;;;;;;;5078329;28;20016;-96
2020/12/09 05:38:18;;;;;;;55.23;26.73;;;;;;;;;;5258230;22;20052;-96
2020/12/09 05:40:47;;;;;;;57.90;27.10;;;;;;;;;;5112040;28;20005;-96
2020/12/09 05:43:15;;;;;;;53.93;26.67;;;;;;;;;;5108676;28;20000;-95
2020/12/09 05:45:44;;;;;;;59.50;28.73;;;;;;;;;;5117621;28;20075;-94
2020/12/09 06:45:23;;;;;;;48.77;24.40;;;;;;;;;;995795;22;20287;-94
2020/12/09 10:45:35;;;;;;;60.17;29.13;;;;;;;;;;5077385;28;20056;-94
2020/12/09 10:48:01;;;;;;;59.73;28.60;;;;;;;;;;5064988;28;20107;-94
2020/12/09 14:21:08;;;;;;;52.87;24.97;;;;;;;;;;5058044;28;20405;-87
2020/12/09 14:23:34;;;;;;;52.07;24.60;;;;;;;;;;5051938;28;20060;-87
2020/12/09 14:26:00;;;;;;;48.57;22.43;;;;;;;;;;5071734;28;20043;-87
2020/12/09 14:28:26;;;;;;;49.73;24.43;;;;;;;;;;5059597;28;20382;-88
2020/12/09 14:30:52;;;;;;;47.03;22.23;;;;;;;;;;5053593;28;20082;-88
2020/12/09 14:33:18;;;;;;;44.97;22.33;;;;;;;;;;5050101;28;20028;-89
2020/12/09 14:35:45;;;;;;;50.80;23.93;;;;;;;;;;5050241;28;20021;-88
2020/12/09 14:38:11;;;;;;;51.37;24.93;;;;;;;;;;5051259;28;20071;-88
2020/12/09 14:40:37;;;;;;;54.00;25.73;;;;;;;;;;5070301;28;20036;-88
2020/12/09 14:43:04;;;;;;;52.70;23.00;;;;;;;;;;5071144;28;20039;-88
2020/12/09 14:45:31;;;;;;;50.23;23.13;;;;;;;;;;5067161;28;20024;-87
2020/12/09 14:47:57;;;;;;;48.43;24.07;;;;;;;;;;5057328;28;20024;-88
2020/12/09 14:50:27;;;;;;;53.60;25.30;;;;;;;;;;5063488;28;20078;-89
2020/12/09 14:52:53;;;;;;;49.57;23.57;;;;;;;;;;5053769;28;20101;-88
2020/12/09 14:55:19;;;;;;;49.53;23.90;;;;;;;;;;5059364;28;20035;-88
2020/12/09 14:57:45;;;;;;;47.97;24.30;;;;;;;;;;5056557;28;20024;-88
2020/12/09 15:00:11;;;;;;;45.33;22.53;;;;;;;;;;5061846;28;20461;-87
2020/12/09 15:03:10;;;;;;;47.30;23.30;;;;;;;;;;5056093;28;20040;-88
2020/12/09 15:05:29;;;;;;;37.63;17.33;;;;;;;;;;5050772;28;20436;-88
2020/12/09 15:07:56;;;;;;;43.77;22.33;;;;;;;;;;5062614;28;20151;-88
2020/12/09 15:10:22;;;;;;;47.43;23.07;;;;;;;;;;5055114;28;20136;-88
2020/12/09 15:12:48;;;;;;;48.40;22.87;;;;;;;;;;5065776;28;20029;-89
2020/12/09 15:15:14;;;;;;;49.77;24.07;;;;;;;;;;5057012;28;20020;-88
2020/12/09 15:17:40;;;;;;;43.30;22.83;;;;;;;;;;5060186;28;20561;-88
2020/12/09 15:20:06;;;;;;;45.87;23.33;;;;;;;;;;5058947;28;20028;-88
2020/12/09 15:22:32;;;;;;;41.93;21.10;;;;;;;;;;5068482;28;20505;-88
2020/12/09 15:24:58;;;;;;;44.53;22.77;;;;;;;;;;5049969;28;20068;-88
2020/12/09 15:27:24;;;;;;;43.60;22.13;;;;;;;;;;5054952;28;20056;-88
2020/12/09 15:29:50;;;;;;;41.37;20.37;;;;;;;;;;5049411;28;20036;-88
2020/12/09 15:32:16;;;;;;;43.07;21.93;;;;;;;;;;5047578;28;20724;-89
2020/12/09 15:34:42;;;;;;;44.60;21.83;;;;;;;;;;5068991;28;20029;-87
2020/12/09 15:37:08;;;;;;;39.70;20.30;;;;;;;;;;5071300;28;20024;-87
2020/12/09 15:39:34;;;;;;;42.53;21.07;;;;;;;;;;5067442;28;20473;-87
2020/12/09 15:42:00;;;;;;;40.90;20.77;;;;;;;;;;5072473;28;20036;-87
2020/12/09 15:44:26;;;;;;;43.23;22.27;;;;;;;;;;5074445;28;20024;-86
2020/12/09 15:46:56;;;;;;;42.10;21.27;;;;;;;;;;5084082;28;20020;-87
2020/12/09 15:49:24;;;;;;;44.97;21.10;;;;;;;;;;5096791;28;20028;-87
2020/12/09 15:51:50;;;;;;;40.43;19.13;;;;;;;;;;5081432;28;20028;-87
2020/12/09 15:54:16;;;;;;;40.23;19.90;;;;;;;;;;5076951;28;20093;-88
2020/12/09 15:56:42;;;;;;;43.47;21.13;;;;;;;;;;5082014;28;20472;-87
2020/12/09 15:59:08;;;;;;;41.40;20.53;;;;;;;;;;5093725;28;20020;-87
2020/12/09 16:01:34;;;;;;;45.33;21.93;;;;;;;;;;5093863;28;20028;-87
2020/12/09 16:04:00;;;;;;;44.87;21.70;;;;;;;;;;5070146;28;20032;-88
2020/12/09 16:06:26;;;;;;;43.40;20.73;;;;;;;;;;5081117;28;20035;-87
2020/12/09 16:08:52;;;;;;;45.00;22.10;;;;;;;;;;5088647;28;20100;-87
2020/12/09 16:11:18;;;;;;;42.50;20.63;;;;;;;;;;5075129;28;20051;-87
2020/12/09 16:13:44;;;;;;;42.40;20.40;;;;;;;;;;5068430;28;20485;-87
2020/12/09 16:16:10;;;;;;;39.17;20.47;;;;;;;;;;5070693;28;20039;-87
2020/12/09 16:18:36;;;;;;;42.47;20.43;;;;;;;;;;5064216;28;20857;-88
2020/12/09 16:21:02;;;;;;;40.00;20.17;;;;;;;;;;5069504;28;20051;-87
2020/12/09 16:23:29;;;;;;;44.03;20.83;;;;;;;;;;5069906;28;20074;-87
2020/12/09 16:25:56;;;;;;;42.87;20.80;;;;;;;;;;5066502;28;20029;-87
2020/12/09 16:28:23;;;;;;;44.57;20.43;;;;;;;;;;5071298;28;20025;-88
2020/12/09 16:30:49;;;;;;;38.30;19.00;;;;;;;;;;5073346;28;20074;-87
2020/12/09 16:33:17;;;;;;;41.10;19.00;;;;;;;;;;5080079;28;20032;-87
2020/12/09 16:35:43;;;;;;;40.27;19.33;;;;;;;;;;5067873;28;20029;-88
2020/12/09 16:38:09;;;;;;;47.07;22.37;;;;;;;;;;5071303;28;20031;-88
2020/12/09 16:40:36;;;;;;;42.83;22.07;;;;;;;;;;5079498;28;20029;-90
2020/12/09 16:43:02;;;;;;;42.60;21.30;;;;;;;;;;5080369;28;20411;-90
2020/12/09 16:45:28;;;;;;;40.53;20.73;;;;;;;;;;5079198;28;20112;-91
2020/12/09 16:47:54;;;;;;;44.20;21.67;;;;;;;;;;5071693;28;20058;-91
2020/12/09 16:50:20;;;;;;;43.77;20.90;;;;;;;;;;5072007;28;20036;-89
2020/12/09 16:52:46;;;;;;;44.27;21.47;;;;;;;;;;5052343;28;20071;-90
2020/12/09 16:55:12;;;;;;;43.53;21.37;;;;;;;;;;5073519;28;20409;-90
2020/12/09 16:57:38;;;;;;;38.53;20.40;;;;;;;;;;5072182;28;20033;-90
2020/12/09 17:00:05;;;;;;;41.80;21.60;;;;;;;;;;5082712;28;20033;-88
2020/12/09 17:02:32;;;;;;;40.80;21.53;;;;;;;;;;5066660;28;20032;-87
2020/12/09 17:04:58;;;;;;;42.77;21.63;;;;;;;;;;5076182;28;20065;-88
2020/12/09 17:07:24;;;;;;;41.37;19.80;;;;;;;;;;5079319;28;20123;-87
2020/12/09 17:09:50;;;;;;;46.20;20.83;;;;;;;;;;5074395;28;20594;-88
2020/12/09 17:12:16;;;;;;;39.57;19.57;;;;;;;;;;5071410;28;20024;-88
2020/12/09 17:14:43;;;;;;;42.97;21.43;;;;;;;;;;5071582;28;20039;-89
2020/12/09 17:17:08;;;;;;;38.87;20.20;;;;;;;;;;5071955;28;20094;-89
2020/12/09 17:19:35;;;;;;;40.60;19.73;;;;;;;;;;5070815;28;20515;-88
2020/12/09 17:22:02;;;;;;;38.17;19.17;;;;;;;;;;5088479;28;20488;-89
2020/12/09 17:24:28;;;;;;;37.10;18.80;;;;;;;;;;5070296;28;20488;-89
2020/12/09 17:26:55;;;;;;;43.77;20.63;;;;;;;;;;5074526;28;20035;-90
2020/12/09 17:29:21;;;;;;;55.10;21.93;;;;;;;;;;5075704;28;20115;-91
2020/12/09 17:31:47;;;;;;;51.70;21.27;;;;;;;;;;5065747;28;20025;-91
2020/12/09 17:34:14;;;;;;;44.10;19.50;;;;;;;;;;5068406;28;20021;-91
2020/12/09 17:36:40;;;;;;;43.40;19.23;;;;;;;;;;5064081;28;20020;-91
2020/12/09 17:39:07;;;;;;;53.30;22.63;;;;;;;;;;5064748;28;20081;-90
2020/12/09 17:41:33;;;;;;;58.60;23.67;;;;;;;;;;5070853;28;20494;-91
2020/12/09 17:44:02;;;;;;;57.03;23.73;;;;;;;;;;5059211;28;20025;-91
2020/12/09 17:46:29;;;;;;;55.07;23.27;;;;;;;;;;5069390;28;20037;-90
2020/12/09 17:48:55;;;;;;;50.30;21.40;;;;;;;;;;5065880;28;20032;-91
2020/12/09 17:51:22;;;;;;;51.00;21.20;;;;;;;;;;5060450;28;20036;-91
2020/12/09 17:53:48;;;;;;;56.90;22.80;;;;;;;;;;5068102;28;20172;-91
2020/12/09 17:56:17;;;;;;;52.87;22.90;;;;;;;;;;5071945;28;20567;-91
2020/12/09 17:58:43;;;;;;;48.00;21.53;;;;;;;;;;5075207;28;20054;-90
2020/12/09 18:01:09;;;;;;;52.73;22.43;;;;;;;;;;5067072;28;20038;-91
2020/12/09 18:03:35;;;;;;;51.23;23.57;;;;;;;;;;5082143;28;20374;-90
2020/12/09 18:06:25;;;;;;;53.17;21.63;;;;;;;;;;5092963;28;20032;-90
2020/12/09 18:08:51;;;;;;;49.00;21.30;;;;;;;;;;5089943;28;20091;-89
2020/12/09 18:11:20;;;;;;;41.70;19.50;;;;;;;;;;5072654;28;20056;-92
2020/12/09 18:13:49;;;;;;;36.87;18.83;;;;;;;;;;5071322;28;20119;-89
2020/12/09 18:16:15;;;;;;;39.33;18.67;;;;;;;;;;5077287;28;20436;-89
2020/12/09 18:18:41;;;;;;;37.53;17.20;;;;;;;;;;5068277;28;20024;-91
2020/12/09 18:21:08;;;;;;;36.73;18.13;;;;;;;;;;5060902;28;20040;-89
2020/12/09 18:23:34;;;;;;;36.13;18.40;;;;;;;;;;5053055;28;20036;-93
2020/12/09 18:26:01;;;;;;;34.37;18.73;;;;;;;;;;5070832;28;20053;-91
2020/12/09 18:28:28;;;;;;;38.60;17.90;;;;;;;;;;5061863;28;20040;-90
2020/12/09 18:30:54;;;;;;;36.40;18.63;;;;;;;;;;5061317;28;20029;-91
2020/12/09 18:33:20;;;;;;;42.40;19.70;;;;;;;;;;5063205;28;20032;-91
2020/12/09 18:35:48;;;;;;;39.27;18.87;;;;;;;;;;5062804;28;20017;-92
2020/12/09 18:38:15;;;;;;;37.23;18.57;;;;;;;;;;5061643;28;20091;-91
2020/12/09 18:40:43;;;;;;;35.90;18.43;;;;;;;;;;5061618;28;20024;-90
2020/12/09 18:43:13;;;;;;;32.10;17.10;;;;;;;;;;5068180;28;20033;-92
2020/12/09 18:45:39;;;;;;;37.23;19.40;;;;;;;;;;5070526;28;20075;-91
2020/12/09 18:48:09;;;;;;;38.30;19.10;;;;;;;;;;5066281;28;20166;-90
2020/12/09 18:50:35;;;;;;;34.97;18.20;;;;;;;;;;5065742;28;20140;-92
2020/12/09 18:53:07;;;;;;;33.37;18.33;;;;;;;;;;5063498;28;20501;-91
2020/12/09 18:55:33;;;;;;;;;;;;;;;;;;5066486;28;20040;-90
2020/12/09 18:58:00;;;;;;;30.00;16.80;;;;;;;;;;5055602;28;19940;-90
2020/12/09 19:00:30;;;;;;;31.20;16.47;;;;;;;;;;5063748;28;20074;-92
2020/12/09 19:02:56;;;;;;;32.67;16.30;;;;;;;;;;5069071;28;20025;-91
2020/12/09 19:05:29;;;;;;;34.23;17.57;;;;;;;;;;5089680;28;20027;-93
2020/12/09 19:07:55;;;;;;;;;;;;;;;;;;5076265;28;20111;-92
2020/12/09 19:10:22;;;;;;;30.50;15.77;;;;;;;;;;5080351;28;19966;-94
2020/12/09 19:12:48;;;;;;;30.60;16.67;;;;;;;;;;5069629;28;20035;-91
2020/12/09 19:15:18;;;;;;;30.10;15.87;;;;;;;;;;5070140;28;20462;-91
2020/12/09 19:17:44;;;;;;;28.37;16.07;;;;;;;;;;5074468;28;20040;-91
2020/12/09 19:20:10;;;;;;;27.20;15.40;;;;;;;;;;5074033;28;20032;-91
2020/12/09 19:22:45;;;;;;;28.97;16.30;;;;;;;;;;5080277;28;20096;-91
2020/12/09 19:25:11;;;;;;;26.43;14.17;;;;;;;;;;5059056;28;20028;-92
2020/12/09 19:27:41;;;;;;;24.93;13.87;;;;;;;;;;5066548;28;20044;-91
2020/12/09 19:30:08;;;;;;;26.57;14.57;;;;;;;;;;5079690;28;20024;-91
2020/12/09 19:32:41;;;;;;;26.77;13.63;;;;;;;;;;5077347;28;20033;-92
2020/12/09 19:35:07;;;;;;;25.53;13.80;;;;;;;;;;5070986;28;20048;-91
2020/12/09 19:37:35;;;;;;;25.50;14.17;;;;;;;;;;5068326;28;20033;-90
2020/12/09 19:40:05;;;;;;;26.53;14.83;;;;;;;;;;5068177;28;20056;-91
2020/12/09 19:42:37;;;;;;;28.70;15.13;;;;;;;;;;5081699;28;20512;-91
2020/12/09 19:45:04;;;;;;;29.25;15.52;;;;;;;;;;5065977;28;20321;-91
2020/12/09 19:47:33;;;;;;;26.90;15.17;;;;;;;;;;5075905;28;20056;-92
2020/12/09 19:49:59;;;;;;;24.83;13.77;;;;;;;;;;5070267;28;20036;-91
2020/12/09 19:52:28;;;;;;;27.87;14.37;;;;;;;;;;5068256;28;20021;-91
2020/12/09 19:54:54;;;;;;;25.67;14.43;;;;;;;;;;5069775;28;20029;-91
2020/12/09 19:57:21;;;;;;;26.63;14.40;;;;;;;;;;5063255;28;20601;-90
2020/12/09 19:59:47;;;;;;;25.93;14.43;;;;;;;;;;5076949;28;20095;-90
2020/12/09 20:02:14;;;;;;;26.77;15.10;;;;;;;;;;5069234;28;20025;-91
2020/12/09 20:04:42;;;;;;;26.87;14.87;;;;;;;;;;5074521;28;20028;-91
2020/12/09 20:07:08;;;;;;;27.60;15.27;;;;;;;;;;5066950;28;20008;-90
2020/12/09 20:09:34;;;;;;;26.77;14.67;;;;;;;;;;5080031;28;20033;-91
2020/12/09 20:12:00;;;;;;;30.67;16.00;;;;;;;;;;5079691;28;20431;-91
2020/12/09 20:14:26;;;;;;;28.50;15.90;;;;;;;;;;5079445;28;20028;-90
2020/12/09 20:16:53;;;;;;;26.00;14.47;;;;;;;;;;5078805;28;20028;-91
2020/12/09 20:19:19;;;;;;;25.53;13.90;;;;;;;;;;5077133;28;20448;-91
2020/12/09 20:21:45;;;;;;;25.73;14.60;;;;;;;;;;5079264;28;20036;-91
2020/12/09 20:24:12;;;;;;;23.47;13.40;;;;;;;;;;5077333;28;20048;-91
2020/12/09 20:26:39;;;;;;;26.73;14.63;;;;;;;;;;5078345;28;20037;-91
2020/12/09 20:29:06;;;;;;;27.07;14.87;;;;;;;;;;5078381;28;20032;-93
2020/12/09 20:31:33;;;;;;;25.47;13.63;;;;;;;;;;5076201;28;20043;-92
2020/12/09 20:34:00;;;;;;;22.63;13.63;;;;;;;;;;5076024;28;20035;-91
2020/12/09 20:36:30;;;;;;;23.73;13.20;;;;;;;;;;5078653;28;20020;-92
2020/12/09 20:38:59;;;;;;;26.20;14.17;;;;;;;;;;5076461;28;20473;-91
2020/12/09 20:41:29;;;;;;;25.43;12.90;;;;;;;;;;5074971;28;20025;-90
2020/12/09 20:43:59;;;;;;;23.13;13.17;;;;;;;;;;5057778;28;20256;-91
2020/12/09 20:46:26;;;;;;;23.43;12.60;;;;;;;;;;5056796;28;20045;-91
2020/12/09 20:48:53;;;;;;;24.30;13.03;;;;;;;;;;5055775;28;20048;-90
2020/12/09 20:51:29;;;;;;;29.07;14.33;;;;;;;;;;5057118;28;20025;-90
2020/12/09 20:53:55;;;;;;;27.73;16.13;;;;;;;;;;5057189;28;20056;-91
2020/12/09 20:56:22;;;;;;;24.57;13.47;;;;;;;;;;5055863;28;20511;-91
2020/12/09 20:58:49;;;;;;;25.20;14.00;;;;;;;;;;5057751;28;20027;-91
2020/12/09 21:01:18;;;;;;;27.07;15.47;;;;;;;;;;5056305;28;20044;-91
2020/12/09 21:03:44;;;;;;;28.97;15.97;;;;;;;;;;5070952;28;20439;-91
2020/12/09 21:06:11;;;;;;;33.23;20.07;;;;;;;;;;5061102;28;20029;-91
2020/12/09 21:08:37;;;;;;;29.70;17.40;;;;;;;;;;5058102;28;20397;-91
2020/12/09 21:11:14;;;;;;;25.83;14.90;;;;;;;;;;5057550;28;20051;-90
2020/12/09 21:13:40;;;;;;;27.03;16.30;;;;;;;;;;5058372;28;20025;-90
2020/12/09 21:16:15;;;;;;;26.53;15.10;;;;;;;;;;5095805;28;20028;-90
2020/12/09 21:18:41;;;;;;;28.47;14.77;;;;;;;;;;5077748;28;20025;-91
2020/12/09 21:21:18;;;;;;;27.83;15.57;;;;;;;;;;5055496;28;20068;-91
2020/12/09 21:23:44;;;;;;;28.47;15.70;;;;;;;;;;5056050;28;20033;-91
2020/12/09 21:26:11;;;;;;;26.43;14.60;;;;;;;;;;5056223;28;20533;-91
2020/12/09 21:28:48;;;;;;;30.47;15.13;;;;;;;;;;5056016;28;20510;-92
2020/12/09 21:31:21;;;;;;;28.30;15.37;;;;;;;;;;5055521;28;20119;-91
2020/12/09 21:33:48;;;;;;;29.43;15.90;;;;;;;;;;5055605;28;20561;-91
2020/12/09 21:36:24;;;;;;;29.27;14.93;;;;;;;;;;5055022;28;20021;-91
2020/12/09 21:38:51;;;;;;;33.13;16.97;;;;;;;;;;5067460;28;20020;-91
2020/12/09 21:41:24;;;;;;;32.97;16.33;;;;;;;;;;5075307;28;20024;-91
2020/12/09 21:43:50;;;;;;;29.97;16.67;;;;;;;;;;5074809;28;20032;-91
2020/12/09 21:46:17;;;;;;;30.60;16.20;;;;;;;;;;5075607;28;20031;-91
2020/12/09 21:48:43;;;;;;;29.87;16.20;;;;;;;;;;5076638;28;20086;-91
2020/12/09 21:51:11;;;;;;;30.30;15.90;;;;;;;;;;5075698;28;20033;-90
2020/12/09 21:53:37;;;;;;;28.07;16.20;;;;;;;;;;5075485;28;20031;-91
2020/12/09 21:56:05;;;;;;;32.47;16.13;;;;;;;;;;5075732;28;20024;-90
2020/12/09 21:58:33;;;;;;;28.47;15.83;;;;;;;;;;5075408;28;20060;-91
2020/12/09 22:01:06;;;;;;;26.90;15.10;;;;;;;;;;5076720;28;20051;-91
2020/12/09 22:03:33;;;;;;;28.13;14.97;;;;;;;;;;5078117;28;20032;-91
2020/12/09 22:05:59;;;;;;;26.10;15.27;;;;;;;;;;5062613;28;20029;-91
2020/12/09 22:08:26;;;;;;;27.23;15.73;;;;;;;;;;5077324;28;20455;-90
2020/12/09 22:10:52;;;;;;;25.97;14.13;;;;;;;;;;5081129;28;20021;-90
2020/12/09 22:13:18;;;;;;;26.47;14.50;;;;;;;;;;5076979;28;20025;-91
2020/12/09 22:15:44;;;;;;;26.43;15.30;;;;;;;;;;5079744;28;20028;-90
2020/12/09 22:18:10;;;;;;;27.53;14.47;;;;;;;;;;5060185;28;20457;-90
2020/12/09 22:20:36;;;;;;;24.80;13.43;;;;;;;;;;5057159;28;20507;-90
2020/12/09 22:23:04;;;;;;;24.07;13.30;;;;;;;;;;5056215;28;20033;-91
2020/12/09 22:25:30;;;;;;;25.23;14.70;;;;;;;;;;5056141;28;20029;-91
2020/12/09 22:27:56;;;;;;;25.53;14.80;;;;;;;;;;5056313;28;20033;-91
2020/12/09 22:30:33;;;;;;;26.00;14.03;;;;;;;;;;5055773;28;20043;-91
2020/12/09 22:33:02;;;;;;;26.10;15.30;;;;;;;;;;5056422;28;20021;-91
2020/12/09 22:35:28;;;;;;;27.70;15.00;;;;;;;;;;5057153;28;20104;-91
2020/12/09 22:37:54;;;;;;;27.70;15.50;;;;;;;;;;5055098;28;20061;-91
2020/12/09 22:40:20;;;;;;;26.53;15.03;;;;;;;;;;5055345;28;20165;-91
2020/12/09 22:42:50;;;;;;;27.77;15.57;;;;;;;;;;5055855;28;20029;-89
2020/12/09 22:45:19;;;;;;;25.77;14.60;;;;;;;;;;5055292;28;20028;-90
2020/12/09 22:47:45;;;;;;;24.97;13.53;;;;;;;;;;5055599;28;20032;-90
2020/12/09 22:50:11;;;;;;;23.97;13.93;;;;;;;;;;5055174;28;20036;-90
2020/12/09 22:52:37;;;;;;;26.33;15.23;;;;;;;;;;5057479;28;20030;-90
2020/12/09 22:55:03;;;;;;;28.00;14.57;;;;;;;;;;5055077;28;20021;-90
2020/12/09 22:57:29;;;;;;;28.10;15.33;;;;;;;;;;5055712;28;20021;-90
2020/12/09 22:59:55;;;;;;;29.97;15.73;;;;;;;;;;5056429;28;20577;-91
2020/12/09 23:02:24;;;;;;;30.27;16.17;;;;;;;;;;5056581;28;20029;-91
2020/12/09 23:04:53;;;;;;;29.17;15.80;;;;;;;;;;5057783;28;20037;-90
2020/12/09 23:07:22;;;;;;;30.07;15.23;;;;;;;;;;5059068;28;20021;-91
2020/12/09 23:09:48;;;;;;;31.27;15.57;;;;;;;;;;5058948;28;20025;-91
2020/12/09 23:12:21;;;;;;;32.23;16.47;;;;;;;;;;5059931;28;20029;-90
2020/12/09 23:14:54;;;;;;;32.20;16.27;;;;;;;;;;5058780;28;20390;-90
2020/12/09 23:17:21;;;;;;;29.17;15.20;;;;;;;;;;5058679;28;20113;-93
2020/12/09 23:19:47;;;;;;;27.77;14.93;;;;;;;;;;5058263;28;20040;-91
2020/12/09 23:22:13;;;;;;;27.27;15.47;;;;;;;;;;5059334;28;20127;-91
2020/12/09 23:24:39;;;;;;;29.33;15.83;;;;;;;;;;5057026;28;20075;-90
2020/12/09 23:27:05;;;;;;;28.83;15.73;;;;;;;;;;5058504;28;20063;-89
2020/12/09 23:29:31;;;;;;;27.60;15.17;;;;;;;;;;5057824;28;20139;-90
2020/12/09 23:32:03;;;;;;;25.77;14.07;;;;;;;;;;5059897;28;20036;-89
2020/12/09 23:34:29;;;;;;;34.97;16.75;;;;;;;;;;5062151;28;20080;-90
2020/12/09 23:36:55;;;;;;;34.97;17.67;;;;;;;;;;5060649;28;20027;-90
2020/12/09 23:39:21;;;;;;;36.87;19.23;;;;;;;;;;5061432;28;20025;-90
2020/12/09 23:41:52;;;;;;;37.67;18.67;;;;;;;;;;5059429;28;20052;-90
2020/12/09 23:44:18;;;;;;;37.80;19.17;;;;;;;;;;5061748;28;20068;-90
2020/12/09 23:46:49;;;;;;;35.90;19.30;;;;;;;;;;5059899;28;20040;-90
2020/12/09 23:49:20;;;;;;;41.33;20.83;;;;;;;;;;5059015;28;20025;-90
2020/12/09 23:51:55;;;;;;;30.20;15.32;;;;;;;;;;5059587;28;20072;-90
2020/12/09 23:54:24;;;;;;;36.87;19.87;;;;;;;;;;5060191;28;20498;-90
2020/12/09 23:56:54;;;;;;;40.63;20.23;;;;;;;;;;5059499;28;20159;-91
2020/12/09 23:59:23;;;;;;;43.03;20.83;;;;;;;;;;5060191;28;20017;-91
